Time;durP1;ratioP1;P1;durP2;ratioP2;P2;SDS_P1;SDS_P2;PMS_P1;PMS_P2;Temp;Humidity;BMP_temperature;BMP_pressure;BME280_temperature;BME280_humidity;BME280_pressure;Samples;Min_cycle;Max_cycle;Signal;HPM_P1;HPM_P2
2022/01/10 00:00:11;;;;;;;;;;;;;;;;;;1033074;28;1260;-44
2022/01/10 00:00:49;;;;;;;;;;;;;;;;;;1033368;28;1224;-44
2022/01/10 00:01:19;;;;;;;;;;;;;;;;;;1033772;28;1079;-44
2022/01/10 00:01:50;;;;;;;;;;;;;;;;;;1031936;28;1151;-44
2022/01/10 00:02:20;;;;;;;;;;;;;;;;;;1031884;28;1234;-43
2022/01/10 00:02:52;;;;;;;;;;;;;;;;;;1031888;28;1080;-44
2022/01/10 00:03:24;;;;;;;;;;;;;;;;;;1032014;28;1142;-44
2022/01/10 00:03:54;;;;;;;;;;;;;;;;;;1031841;28;1155;-43
2022/01/10 00:04:24;;;;;;;;;;;;;;;;;;1031918;28;1210;-43
2022/01/10 00:04:55;;;;;;;;;;;;;;;;;;1031873;28;1088;-43
2022/01/10 00:05:25;;;;;;;;;;;;;;;;;;1031810;28;1131;-43
2022/01/10 00:05:55;;;;;;;;;;;;;;;;;;1031965;28;1064;-43
2022/01/10 00:06:26;;;;;;;;;;;;;;;;;;1031995;28;1123;-43
2022/01/10 00:06:56;;;;;;;;;;;;;;;;;;1031836;28;1190;-44
2022/01/10 00:07:26;;;;;;;;;;;;;;;;;;1031833;28;1977;-43
2022/01/10 00:07:57;;;;;;;;;;;;;;;;;;1031862;28;1127;-43
2022/01/10 00:08:27;;;;;;;;;;;;;;;;;;1031837;28;1167;-43
2022/01/10 00:08:57;;;;;;;;;;;;;;;;;;1029256;28;1060;-44
2022/01/10 00:09:28;;;;;;;;;;;;;;;;;;1031745;28;1135;-43
2022/01/10 00:09:58;;;;;;;;;;;;;;;;;;1031981;28;1190;-44
2022/01/10 00:10:29;;;;;;;;;;;;;;;;;;1031649;28;1198;-44
2022/01/10 00:10:59;;;;;;;;;;;;;;;;;;1031785;28;1104;-44
2022/01/10 00:11:29;;;;;;;;;;;;;;;;;;1031908;28;1060;-43
2022/01/10 00:12:00;;;;;;;;;;;;;;;;;;1031914;28;1143;-44
2022/01/10 00:12:30;;;;;;;;;;;;;;;;;;1031867;28;1179;-44
2022/01/10 00:13:00;;;;;;;;;;;;;;;;;;1031876;28;1032;-44
2022/01/10 00:13:31;;;;;;;;;;;;;;;;;;1031646;28;1095;-43
2022/01/10 00:14:01;;;;;;;;;;;;;;;;;;1027677;28;808;-44
2022/01/10 00:14:32;;;;;;;;;;;;;;;;;;1027311;28;788;-43
2022/01/10 00:15:03;;;;;;;;;;;;;;;;;;1027644;28;899;-43
2022/01/10 00:15:33;;;;;;;;;;;;;;;;;;1027765;28;835;-44
2022/01/10 00:16:04;;;;;;;;;;;;;;;;;;1031935;28;965;-44
2022/01/10 00:16:34;;;;;;;;;;;;;;;;;;1031746;28;974;-44
2022/01/10 00:17:04;;;;;;;;;;;;;;;;;;1032124;28;1364;-44
2022/01/10 00:17:38;;;;;;;;;;;;;;;;;;1031796;28;922;-43
2022/01/10 00:18:08;;;;;;;;;;;;;;;;;;1032100;28;938;-44
2022/01/10 00:18:39;;;;;;;;;;;;;;;;;;1031635;28;812;-44
2022/01/10 00:19:09;;;;;;;;;;;;;;;;;;1032050;28;950;-43
2022/01/10 00:19:39;;;;;;;;;;;;;;;;;;1031945;28;943;-44
2022/01/10 00:20:11;;;;;;;;;;;;;;;;;;1031874;28;1001;-44
2022/01/10 00:20:42;;;;;;;;;;;;;;;;;;1031805;28;1110;-44
2022/01/10 00:21:12;;;;;;;;;;;;;;;;;;1031950;28;866;-43
2022/01/10 00:21:42;;;;;;;;;;;;;;;;;;1031926;28;1132;-44
2022/01/10 00:22:14;;;;;;;;;;;;;;;;;;1031832;28;911;-43
2022/01/10 00:22:46;;;;;;;;;;;;;;;;;;1031794;28;919;-44
2022/01/10 00:23:16;;;;;;;;;;;;;;;;;;1031904;28;804;-43
2022/01/10 00:23:46;;;;;;;;;;;;;;;;;;1032030;28;941;-43
2022/01/10 00:24:17;;;;;;;;;;;;;;;;;;1031878;28;989;-43
2022/01/10 00:24:47;;;;;;;;;;;;;;;;;;1031725;28;1010;-43
2022/01/10 00:25:19;;;;;;;;;;;;;;;;;;1031725;28;795;-43
2022/01/10 00:25:49;;;;;;;;;;;;;;;;;;1031985;28;942;-43
2022/01/10 00:26:19;;;;;;;;;;;;;;;;;;1031747;28;923;-43
2022/01/10 00:26:50;;;;;;;;;;;;;;;;;;1031886;28;882;-43
2022/01/10 00:27:20;;;;;;;;;;;;;;;;;;1031829;28;973;-44
2022/01/10 00:27:53;;;;;;;;;;;;;;;;;;1031828;28;1975;-43
2022/01/10 00:28:23;;;;;;;;;;;;;;;;;;1031959;28;1045;-44
2022/01/10 00:28:53;;;;;;;;;;;;;;;;;;1031814;28;1295;-44
2022/01/10 00:29:24;;;;;;;;;;;;;;;;;;1031797;28;859;-43
2022/01/10 00:29:54;;;;;;;;;;;;;;;;;;1031960;28;867;-44
2022/01/10 00:30:25;;;;;;;;;;;;;;;;;;1027385;28;931;-43
2022/01/10 00:30:56;;;;;;;;;;;;;;;;;;1027425;28;1605;-43
2022/01/10 00:31:26;;;;;;;;;;;;;;;;;;1027513;28;768;-44
2022/01/10 00:31:57;;;;;;;;;;;;;;;;;;1027701;28;922;-44
2022/01/10 00:32:27;;;;;;;;;;;;;;;;;;1031577;28;819;-44
2022/01/10 00:32:57;;;;;;;;;;;;;;;;;;1031820;28;883;-44
2022/01/10 00:33:28;;;;;;;;;;;;;;;;;;1031802;28;882;-44
2022/01/10 00:33:58;;;;;;;;;;;;;;;;;;1031955;28;862;-44
2022/01/10 00:34:28;;;;;;;;;;;;;;;;;;1031381;28;1475;-44
2022/01/10 00:34:59;;;;;;;;;;;;;;;;;;1031536;28;946;-44
2022/01/10 00:35:29;;;;;;;;;;;;;;;;;;1031516;28;791;-43
2022/01/10 00:36:00;;;;;;;;;;;;;;;;;;1031506;28;854;-44
2022/01/10 00:36:30;;;;;;;;;;;;;;;;;;1031974;28;791;-43
2022/01/10 00:37:00;;;;;;;;;;;;;;;;;;1031731;28;1694;-44
2022/01/10 00:37:31;;;;;;;;;;;;;;;;;;1031547;28;839;-44
2022/01/10 00:38:02;;;;;;;;;;;;;;;;;;1027632;28;1469;-44
2022/01/10 00:38:32;;;;;;;;;;;;;;;;;;1027190;28;982;-44
2022/01/10 00:39:03;;;;;;;;;;;;;;;;;;1027576;28;929;-43
2022/01/10 00:39:34;;;;;;;;;;;;;;;;;;1027607;28;791;-44
2022/01/10 00:40:04;;;;;;;;;;;;;;;;;;1031895;28;807;-44
2022/01/10 00:40:35;;;;;;;;;;;;;;;;;;1031628;28;863;-45
2022/01/10 00:41:05;;;;;;;;;;;;;;;;;;1031847;28;775;-44
2022/01/10 00:41:36;;;;;;;;;;;;;;;;;;1031307;28;1409;-44
2022/01/10 00:42:07;;;;;;;;;;;;;;;;;;1031609;28;906;-44
2022/01/10 00:42:37;;;;;;;;;;;;;;;;;;1031299;28;962;-44
2022/01/10 00:43:17;;;;;;;;;;;;;;;;;;1031652;28;780;-43
2022/01/10 00:43:49;;;;;;;;;;;;;;;;;;1031805;28;997;-43
2022/01/10 00:44:25;;;;;;;;;;;;;;;;;;1031862;28;934;-43
2022/01/10 00:44:59;;;;;;;;;;;;;;;;;;1031789;28;866;-44
2022/01/10 00:45:30;;;;;;;;;;;;;;;;;;1031508;28;894;-43
2022/01/10 00:46:02;;;;;;;;;;;;;;;;;;1031435;28;1175;-43
2022/01/10 00:46:32;;;;;;;;;;;;;;;;;;1027101;28;1110;-44
2022/01/10 00:47:03;;;;;;;;;;;;;;;;;;1027642;28;903;-44
2022/01/10 00:47:33;;;;;;;;;;;;;;;;;;1027368;28;1906;-44
2022/01/10 00:48:04;;;;;;;;;;;;;;;;;;1027535;28;934;-44
2022/01/10 00:48:35;;;;;;;;;;;;;;;;;;1031689;28;1101;-44
2022/01/10 00:49:06;;;;;;;;;;;;;;;;;;1031882;28;981;-44
2022/01/10 00:49:36;;;;;;;;;;;;;;;;;;1031838;28;973;-44
2022/01/10 00:50:07;;;;;;;;;;;;;;;;;;1027415;28;1535;-44
2022/01/10 00:50:37;;;;;;;;;;;;;;;;;;1027030;28;1067;-44
2022/01/10 00:51:08;;;;;;;;;;;;;;;;;;1027643;28;1333;-44
2022/01/10 00:51:38;;;;;;;;;;;;;;;;;;1027416;28;1001;-43
2022/01/10 00:52:09;;;;;;;;;;;;;;;;;;1031531;28;944;-44
2022/01/10 00:52:39;;;;;;;;;;;;;;;;;;1031658;28;934;-44
2022/01/10 00:53:09;;;;;;;;;;;;;;;;;;1031896;28;929;-44
2022/01/10 00:53:40;;;;;;;;;;;;;;;;;;1031820;28;823;-44
2022/01/10 00:54:10;;;;;;;;;;;;;;;;;;1031800;28;942;-44
2022/01/10 00:54:40;;;;;;;;;;;;;;;;;;1031632;28;958;-43
2022/01/10 00:55:12;;;;;;;;;;;;;;;;;;1031915;28;827;-44
2022/01/10 00:55:42;;;;;;;;;;;;;;;;;;1031306;28;1272;-44
2022/01/10 00:56:12;;;;;;;;;;;;;;;;;;1031442;28;1229;-44
2022/01/10 00:56:43;;;;;;;;;;;;;;;;;;1031262;28;954;-43
2022/01/10 00:57:13;;;;;;;;;;;;;;;;;;1031458;28;878;-43
2022/01/10 00:57:43;;;;;;;;;;;;;;;;;;1027567;28;815;-44
2022/01/10 00:58:14;;;;;;;;;;;;;;;;;;1027328;28;969;-44
2022/01/10 00:58:44;;;;;;;;;;;;;;;;;;1031722;28;946;-44
2022/01/10 00:59:14;;;;;;;;;;;;;;;;;;1031428;28;1337;-43
2022/01/10 00:59:45;;;;;;;;;;;;;;;;;;1031418;28;1033;-44
2022/01/10 01:00:16;;;;;;;;;;;;;;;;;;1031310;28;788;-43
2022/01/10 01:00:46;;;;;;;;;;;;;;;;;;1031301;28;806;-44
2022/01/10 01:01:17;;;;;;;;;;;;;;;;;;1031399;28;835;-43
2022/01/10 01:01:48;;;;;;;;;;;;;;;;;;1031416;28;1253;-44
2022/01/10 01:02:20;;;;;;;;;;;;;;;;;;1031331;28;842;-43
2022/01/10 01:02:50;;;;;;;;;;;;;;;;;;1031501;28;918;-43
2022/01/10 01:03:21;;;;;;;;;;;;;;;;;;1031443;28;779;-43
2022/01/10 01:03:51;;;;;;;;;;;;;;;;;;1031827;28;926;-43
2022/01/10 01:04:22;;;;;;;;;;;;;;;;;;1031504;28;866;-43
2022/01/10 01:04:53;;;;;;;;;;;;;;;;;;1031243;28;838;-43
2022/01/10 01:05:24;;;;;;;;;;;;;;;;;;1031512;28;961;-44
2022/01/10 01:05:55;;;;;;;;;;;;;;;;;;1031425;28;942;-44
2022/01/10 01:06:25;;;;;;;;;;;;;;;;;;1031731;28;922;-43
2022/01/10 01:06:55;;;;;;;;;;;;;;;;;;1031626;28;858;-43
2022/01/10 01:07:26;;;;;;;;;;;;;;;;;;1031687;28;1977;-44
2022/01/10 01:08:03;;;;;;;;;;;;;;;;;;1031777;28;835;-43
2022/01/10 01:08:35;;;;;;;;;;;;;;;;;;1027236;28;1373;-44
2022/01/10 01:09:08;;;;;;;;;;;;;;;;;;1022915;28;875;-43
2022/01/10 01:09:43;;;;;;;;;;;;;;;;;;1023325;29;914;-43
2022/01/10 01:11:30;;;;;;;;;;;;;;;;;;1031459;28;918;-43
2022/01/10 01:12:16;;;;;;;;;;;;;;;;;;1031608;28;1402;-44
2022/01/10 01:12:55;;;;;;;;;;;;;;;;;;1031592;28;890;-43
2022/01/10 01:13:59;;;;;;;;;;;;;;;;;;1031649;28;760;-43
2022/01/10 01:14:49;;;;;;;;;;;;;;;;;;1031808;28;862;-43
2022/01/10 01:15:24;;;;;;;;;;;;;;;;;;1031596;28;866;-43
2022/01/10 01:17:32;;;;;;;;;;;;;;;;;;1027384;28;1301;-43
2022/01/10 01:20:04;;;;;;;;;;;;;;;;;;1031492;28;815;-44
2022/01/10 01:24:05;;;;;;;;;;;;;;;;;;1015086;29;966;-43
2022/01/10 01:24:35;;;;;;;;;;;;;;;;;;1031181;28;1209;-44
2022/01/10 01:25:06;;;;;;;;;;;;;;;;;;1034124;28;1189;-44
2022/01/10 01:25:37;;;;;;;;;;;;;;;;;;1035367;28;940;-44
2022/01/10 01:26:09;;;;;;;;;;;;;;;;;;1035174;28;823;-43
2022/01/10 01:26:41;;;;;;;;;;;;;;;;;;1031252;28;874;-44
2022/01/10 01:27:11;;;;;;;;;;;;;;;;;;1031936;28;954;-44
2022/01/10 01:27:42;;;;;;;;;;;;;;;;;;1035696;28;1898;-43
2022/01/10 01:28:13;;;;;;;;;;;;;;;;;;1035768;28;993;-44
2022/01/10 01:28:43;;;;;;;;;;;;;;;;;;1035495;28;1266;-44
2022/01/10 01:29:15;;;;;;;;;;;;;;;;;;1035351;28;1174;-44
2022/01/10 01:30:07;;;;;;;;;;;;;;;;;;1031356;28;1169;-44
2022/01/10 01:30:38;;;;;;;;;;;;;;;;;;1027037;28;1209;-44
2022/01/10 01:31:08;;;;;;;;;;;;;;;;;;1027424;28;874;-44
2022/01/10 01:33:05;;;;;;;;;;;;;;;;;;1035470;28;653;-43
2022/01/10 01:33:36;;;;;;;;;;;;;;;;;;1031274;28;1189;-44
2022/01/10 01:34:06;;;;;;;;;;;;;;;;;;1031271;28;1028;-44
2022/01/10 01:34:37;;;;;;;;;;;;;;;;;;1031175;28;1235;-44
2022/01/10 01:35:08;;;;;;;;;;;;;;;;;;1031372;28;1436;-43
2022/01/10 01:35:39;;;;;;;;;;;;;;;;;;1031214;28;1367;-44
2022/01/10 01:36:09;;;;;;;;;;;;;;;;;;1027199;28;1308;-44
2022/01/10 01:36:40;;;;;;;;;;;;;;;;;;1023114;29;2257;-44
2022/01/10 01:37:11;;;;;;;;;;;;;;;;;;1023383;28;970;-44
2022/01/10 01:37:42;;;;;;;;;;;;;;;;;;1027511;28;1209;-44
2022/01/10 01:38:12;;;;;;;;;;;;;;;;;;1027356;28;1248;-44
2022/01/10 01:38:42;;;;;;;;;;;;;;;;;;1027122;28;997;-44
2022/01/10 01:39:23;;;;;;;;;;;;;;;;;;1031208;28;1351;-44
2022/01/10 01:39:59;;;;;;;;;;;;;;;;;;1031138;28;1531;-44
2022/01/10 01:40:31;;;;;;;;;;;;;;;;;;1029205;28;1201;-44
2022/01/10 01:41:56;;;;;;;;;;;;;;;;;;1031294;28;930;-44
2022/01/10 01:43:00;;;;;;;;;;;;;;;;;;1031197;28;1145;-44
2022/01/10 01:43:31;;;;;;;;;;;;;;;;;;1027323;28;1157;-44
2022/01/10 01:44:02;;;;;;;;;;;;;;;;;;1027732;28;941;-44
2022/01/10 01:44:33;;;;;;;;;;;;;;;;;;1035092;28;1303;-44
2022/01/10 01:45:05;;;;;;;;;;;;;;;;;;1034914;28;1342;-43
2022/01/10 01:45:36;;;;;;;;;;;;;;;;;;1031242;28;1536;-44
2022/01/10 01:46:06;;;;;;;;;;;;;;;;;;1031299;28;799;-44
2022/01/10 01:46:37;;;;;;;;;;;;;;;;;;1027283;28;1392;-44
2022/01/10 01:47:07;;;;;;;;;;;;;;;;;;1027173;28;1265;-44
2022/01/10 01:47:38;;;;;;;;;;;;;;;;;;1027115;28;1976;-44
2022/01/10 01:48:16;;;;;;;;;;;;;;;;;;1027110;28;1152;-44
2022/01/10 01:48:47;;;;;;;;;;;;;;;;;;1026689;28;1325;-44
2022/01/10 01:49:17;;;;;;;;;;;;;;;;;;1023090;29;1213;-43
2022/01/10 01:49:48;;;;;;;;;;;;;;;;;;1023357;29;804;-44
2022/01/10 01:50:18;;;;;;;;;;;;;;;;;;1023244;28;938;-44
2022/01/10 01:50:49;;;;;;;;;;;;;;;;;;1023155;28;1281;-44
2022/01/10 01:51:20;;;;;;;;;;;;;;;;;;1027082;28;1292;-43
2022/01/10 01:51:50;;;;;;;;;;;;;;;;;;1027233;28;859;-44
2022/01/10 01:52:21;;;;;;;;;;;;;;;;;;1027363;28;1054;-44
2022/01/10 01:52:51;;;;;;;;;;;;;;;;;;1031145;28;925;-44
2022/01/10 01:53:21;;;;;;;;;;;;;;;;;;1031516;28;902;-45
2022/01/10 01:53:52;;;;;;;;;;;;;;;;;;1027103;28;1244;-44
2022/01/10 01:54:24;;;;;;;;;;;;;;;;;;1027238;28;874;-44
2022/01/10 01:54:55;;;;;;;;;;;;;;;;;;1023127;29;2160;-44
2022/01/10 01:55:25;;;;;;;;;;;;;;;;;;1023436;28;1301;-44
2022/01/10 01:55:56;;;;;;;;;;;;;;;;;;1027063;28;1416;-44
2022/01/10 01:56:27;;;;;;;;;;;;;;;;;;1023261;28;1138;-44
2022/01/10 01:56:58;;;;;;;;;;;;;;;;;;1022965;29;1463;-44
2022/01/10 01:57:29;;;;;;;;;;;;;;;;;;1023495;28;808;-44
2022/01/10 01:57:59;;;;;;;;;;;;;;;;;;1023400;28;1099;-44
2022/01/10 01:58:31;;;;;;;;;;;;;;;;;;1030893;28;1382;-44
2022/01/10 01:59:01;;;;;;;;;;;;;;;;;;1031223;28;1570;-44
2022/01/10 01:59:34;;;;;;;;;;;;;;;;;;1030837;28;1212;-44
2022/01/10 02:00:05;;;;;;;;;;;;;;;;;;1030737;28;1402;-44
2022/01/10 02:00:36;;;;;;;;;;;;;;;;;;1027036;28;1207;-44
2022/01/10 02:01:09;;;;;;;;;;;;;;;;;;1023038;29;1590;-44
2022/01/10 02:01:40;;;;;;;;;;;;;;;;;;1023837;28;851;-44
2022/01/10 02:02:10;;;;;;;;;;;;;;;;;;1026998;28;1256;-43
2022/01/10 02:02:41;;;;;;;;;;;;;;;;;;1027689;28;938;-43
2022/01/10 02:03:11;;;;;;;;;;;;;;;;;;1027111;28;1528;-43
2022/01/10 02:03:42;;;;;;;;;;;;;;;;;;1023134;29;1299;-43
2022/01/10 02:04:14;;;;;;;;;;;;;;;;;;1023223;29;1288;-43
2022/01/10 02:04:47;;;;;;;;;;;;;;;;;;1023680;28;978;-43
2022/01/10 02:05:17;;;;;;;;;;;;;;;;;;1023659;28;1169;-44
2022/01/10 02:05:48;;;;;;;;;;;;;;;;;;1027139;28;874;-44
2022/01/10 02:06:18;;;;;;;;;;;;;;;;;;1023100;29;1611;-44
2022/01/10 02:06:48;;;;;;;;;;;;;;;;;;1023136;28;879;-43
2022/01/10 02:07:19;;;;;;;;;;;;;;;;;;1027185;28;799;-43
2022/01/10 02:07:50;;;;;;;;;;;;;;;;;;1022928;28;1980;-43
2022/01/10 02:08:21;;;;;;;;;;;;;;;;;;1027199;28;1327;-43
2022/01/10 02:08:51;;;;;;;;;;;;;;;;;;1027105;28;1273;-43
2022/01/10 02:09:21;;;;;;;;;;;;;;;;;;1023106;29;1266;-43
2022/01/10 02:09:55;;;;;;;;;;;;;;;;;;1023572;28;1202;-44
2022/01/10 02:10:26;;;;;;;;;;;;;;;;;;1022850;29;1119;-44
2022/01/10 02:10:59;;;;;;;;;;;;;;;;;;1020056;29;1301;-43
2022/01/10 02:11:29;;;;;;;;;;;;;;;;;;1023119;29;835;-44
2022/01/10 02:12:00;;;;;;;;;;;;;;;;;;1019549;29;1289;-43
2022/01/10 02:12:30;;;;;;;;;;;;;;;;;;1023135;28;907;-44
2022/01/10 02:13:01;;;;;;;;;;;;;;;;;;1027238;28;784;-43
2022/01/10 02:13:31;;;;;;;;;;;;;;;;;;1023068;28;1162;-43
2022/01/10 02:14:04;;;;;;;;;;;;;;;;;;1030763;28;1985;-44
2022/01/10 02:14:46;;;;;;;;;;;;;;;;;;1031061;28;850;-44
2022/01/10 02:15:33;;;;;;;;;;;;;;;;;;1028996;28;1180;-44
2022/01/10 02:16:10;;;;;;;;;;;;;;;;;;1031051;28;850;-44
2022/01/10 02:16:45;;;;;;;;;;;;;;;;;;1031130;28;1193;-44
2022/01/10 02:17:36;;;;;;;;;;;;;;;;;;1030889;28;1774;-43
2022/01/10 02:18:17;;;;;;;;;;;;;;;;;;1035071;28;1669;-44
2022/01/10 02:18:51;;;;;;;;;;;;;;;;;;1034931;28;1160;-44
2022/01/10 02:19:22;;;;;;;;;;;;;;;;;;1031194;28;1285;-44
2022/01/10 02:19:56;;;;;;;;;;;;;;;;;;1031160;28;970;-44
2022/01/10 02:20:29;;;;;;;;;;;;;;;;;;1026494;28;1181;-44
2022/01/10 02:21:02;;;;;;;;;;;;;;;;;;1031676;28;1177;-44
2022/01/10 02:21:34;;;;;;;;;;;;;;;;;;1034865;28;1161;-44
2022/01/10 02:22:05;;;;;;;;;;;;;;;;;;1031064;28;1584;-44
2022/01/10 02:22:46;;;;;;;;;;;;;;;;;;1026946;28;1037;-44
2022/01/10 02:23:43;;;;;;;;;;;;;;;;;;1024904;28;1141;-43
2022/01/10 02:24:28;;;;;;;;;;;;;;;;;;1028419;28;1472;-44
2022/01/10 02:25:02;;;;;;;;;;;;;;;;;;1028510;28;1380;-44
2022/01/10 02:25:34;;;;;;;;;;;;;;;;;;1023065;29;1464;-43
2022/01/10 02:26:04;;;;;;;;;;;;;;;;;;1023895;28;840;-43
2022/01/10 02:26:39;;;;;;;;;;;;;;;;;;1022882;29;1183;-43
2022/01/10 02:27:09;;;;;;;;;;;;;;;;;;1023739;28;1387;-43
2022/01/10 02:27:40;;;;;;;;;;;;;;;;;;1027025;28;1911;-43
2022/01/10 02:28:11;;;;;;;;;;;;;;;;;;1027554;28;1292;-43
2022/01/10 02:28:42;;;;;;;;;;;;;;;;;;1026926;28;1311;-43
2022/01/10 02:29:12;;;;;;;;;;;;;;;;;;1022991;29;1308;-43
2022/01/10 02:29:43;;;;;;;;;;;;;;;;;;1027074;28;1278;-43
2022/01/10 02:30:13;;;;;;;;;;;;;;;;;;1027036;28;950;-43
2022/01/10 02:30:43;;;;;;;;;;;;;;;;;;1027024;28;1131;-43
2022/01/10 02:31:14;;;;;;;;;;;;;;;;;;1027119;28;808;-43
2022/01/10 02:31:45;;;;;;;;;;;;;;;;;;1026864;28;935;-43
2022/01/10 02:32:16;;;;;;;;;;;;;;;;;;1023253;28;923;-43
2022/01/10 02:32:46;;;;;;;;;;;;;;;;;;1030867;28;1215;-44
2022/01/10 02:33:17;;;;;;;;;;;;;;;;;;1027077;28;1231;-43
2022/01/10 02:33:50;;;;;;;;;;;;;;;;;;1026921;28;1166;-42
2022/01/10 02:34:24;;;;;;;;;;;;;;;;;;1022957;29;923;-44
2022/01/10 02:34:55;;;;;;;;;;;;;;;;;;1024046;28;928;-43
2022/01/10 02:35:27;;;;;;;;;;;;;;;;;;1027965;28;808;-43
2022/01/10 02:36:33;;;;;;;;;;;;;;;;;;1026900;28;949;-43
2022/01/10 02:37:03;;;;;;;;;;;;;;;;;;1027025;28;874;-44
2022/01/10 02:37:37;;;;;;;;;;;;;;;;;;1027080;28;1722;-44
2022/01/10 02:38:18;;;;;;;;;;;;;;;;;;1024054;28;1394;-44
2022/01/10 02:38:58;;;;;;;;;;;;;;;;;;1030904;28;669;-44
2022/01/10 02:39:30;;;;;;;;;;;;;;;;;;1027944;28;1253;-44
2022/01/10 02:40:06;;;;;;;;;;;;;;;;;;1031122;28;1539;-44
2022/01/10 02:40:36;;;;;;;;;;;;;;;;;;1026947;28;1194;-43
2022/01/10 02:41:07;;;;;;;;;;;;;;;;;;1026374;28;1470;-44
2022/01/10 02:41:45;;;;;;;;;;;;;;;;;;1025156;28;1145;-44
2022/01/10 02:42:15;;;;;;;;;;;;;;;;;;1025450;28;1318;-43
2022/01/10 02:42:46;;;;;;;;;;;;;;;;;;1027015;28;1410;-44
2022/01/10 02:43:18;;;;;;;;;;;;;;;;;;1027178;28;775;-43
2022/01/10 02:43:49;;;;;;;;;;;;;;;;;;1022850;29;1421;-44
2022/01/10 02:44:22;;;;;;;;;;;;;;;;;;1023624;28;1509;-44
2022/01/10 02:44:52;;;;;;;;;;;;;;;;;;1026872;28;1037;-43
2022/01/10 02:45:24;;;;;;;;;;;;;;;;;;1027231;28;1167;-44
2022/01/10 02:45:55;;;;;;;;;;;;;;;;;;1031018;28;1394;-44
2022/01/10 02:46:27;;;;;;;;;;;;;;;;;;1026812;28;1457;-44
2022/01/10 02:46:58;;;;;;;;;;;;;;;;;;1023125;29;1273;-45
2022/01/10 02:47:36;;;;;;;;;;;;;;;;;;1026742;28;1969;-44
2022/01/10 02:48:10;;;;;;;;;;;;;;;;;;1028261;28;1257;-44
2022/01/10 02:48:40;;;;;;;;;;;;;;;;;;1029363;28;1204;-44
2022/01/10 02:49:31;;;;;;;;;;;;;;;;;;1022958;29;1265;-44
2022/01/10 02:50:02;;;;;;;;;;;;;;;;;;1021932;29;1776;-45
2022/01/10 02:50:33;;;;;;;;;;;;;;;;;;1018723;29;1285;-44
2022/01/10 02:51:03;;;;;;;;;;;;;;;;;;1022123;29;1166;-45
2022/01/10 02:51:34;;;;;;;;;;;;;;;;;;1023206;28;808;-44
2022/01/10 02:52:06;;;;;;;;;;;;;;;;;;1022929;28;1251;-45
2022/01/10 02:52:37;;;;;;;;;;;;;;;;;;1026967;28;1178;-44
2022/01/10 02:53:07;;;;;;;;;;;;;;;;;;1023023;29;1147;-44
2022/01/10 02:53:39;;;;;;;;;;;;;;;;;;1023628;28;1272;-45
2022/01/10 02:54:12;;;;;;;;;;;;;;;;;;1022867;29;1209;-44
2022/01/10 02:54:43;;;;;;;;;;;;;;;;;;1023055;29;813;-44
2022/01/10 02:55:20;;;;;;;;;;;;;;;;;;1020272;29;1193;-44
2022/01/10 02:55:50;;;;;;;;;;;;;;;;;;1024174;28;958;-44
2022/01/10 02:56:20;;;;;;;;;;;;;;;;;;1027091;28;922;-44
2022/01/10 02:56:52;;;;;;;;;;;;;;;;;;1022884;28;1305;-45
2022/01/10 02:57:24;;;;;;;;;;;;;;;;;;1027034;28;1221;-45
2022/01/10 02:57:54;;;;;;;;;;;;;;;;;;1027169;28;806;-44
2022/01/10 02:58:25;;;;;;;;;;;;;;;;;;1023348;28;1386;-45
2022/01/10 02:58:55;;;;;;;;;;;;;;;;;;1026991;28;1127;-44
2022/01/10 02:59:26;;;;;;;;;;;;;;;;;;1026950;28;858;-44
2022/01/10 02:59:57;;;;;;;;;;;;;;;;;;1027149;28;899;-44
2022/01/10 03:00:28;;;;;;;;;;;;;;;;;;1026726;28;1292;-45
2022/01/10 03:00:58;;;;;;;;;;;;;;;;;;1026920;28;1268;-44
2022/01/10 03:01:29;;;;;;;;;;;;;;;;;;1022930;29;1175;-44
2022/01/10 03:01:59;;;;;;;;;;;;;;;;;;1023117;28;883;-44
2022/01/10 03:02:34;;;;;;;;;;;;;;;;;;1026828;28;866;-45
2022/01/10 03:03:06;;;;;;;;;;;;;;;;;;1027010;28;1158;-44
2022/01/10 03:03:37;;;;;;;;;;;;;;;;;;1022902;29;1317;-44
2022/01/10 03:04:08;;;;;;;;;;;;;;;;;;1022998;29;1234;-44
2022/01/10 03:04:38;;;;;;;;;;;;;;;;;;1019300;29;1159;-45
2022/01/10 03:05:09;;;;;;;;;;;;;;;;;;1023060;28;811;-44
2022/01/10 03:05:40;;;;;;;;;;;;;;;;;;1027060;28;1431;-44
2022/01/10 03:06:10;;;;;;;;;;;;;;;;;;1027095;28;886;-44
2022/01/10 03:06:41;;;;;;;;;;;;;;;;;;1031342;28;993;-44
2022/01/10 03:07:14;;;;;;;;;;;;;;;;;;1031447;28;942;-44
2022/01/10 03:07:45;;;;;;;;;;;;;;;;;;1026739;28;1961;-44
2022/01/10 03:08:16;;;;;;;;;;;;;;;;;;1027038;28;1426;-45
2022/01/10 03:08:46;;;;;;;;;;;;;;;;;;1026786;28;808;-44
2022/01/10 03:09:16;;;;;;;;;;;;;;;;;;1027244;28;736;-44
2022/01/10 03:09:47;;;;;;;;;;;;;;;;;;1026840;28;1239;-45
2022/01/10 03:10:17;;;;;;;;;;;;;;;;;;1022828;29;1181;-44
2022/01/10 03:10:48;;;;;;;;;;;;;;;;;;1022840;29;803;-44
2022/01/10 03:11:18;;;;;;;;;;;;;;;;;;1023287;28;848;-44
2022/01/10 03:11:48;;;;;;;;;;;;;;;;;;1026927;28;843;-44
2022/01/10 03:12:19;;;;;;;;;;;;;;;;;;1027149;28;1071;-44
2022/01/10 03:12:50;;;;;;;;;;;;;;;;;;1026705;28;1244;-44
2022/01/10 03:13:21;;;;;;;;;;;;;;;;;;1027117;28;1450;-45
2022/01/10 03:13:51;;;;;;;;;;;;;;;;;;1026980;28;1083;-44
2022/01/10 03:14:22;;;;;;;;;;;;;;;;;;1027029;28;1515;-44
2022/01/10 03:14:52;;;;;;;;;;;;;;;;;;1026773;28;2546;-45
2022/01/10 03:15:24;;;;;;;;;;;;;;;;;;1022845;29;1310;-44
2022/01/10 03:15:54;;;;;;;;;;;;;;;;;;1023189;28;819;-44
2022/01/10 03:16:24;;;;;;;;;;;;;;;;;;1030911;28;1129;-44
2022/01/10 03:16:55;;;;;;;;;;;;;;;;;;1022807;29;935;-44
2022/01/10 03:17:26;;;;;;;;;;;;;;;;;;1022932;29;1139;-45
2022/01/10 03:17:56;;;;;;;;;;;;;;;;;;1023092;28;827;-45
2022/01/10 03:18:26;;;;;;;;;;;;;;;;;;1022973;28;1250;-44
2022/01/10 03:18:57;;;;;;;;;;;;;;;;;;1022906;29;1107;-44
2022/01/10 03:19:27;;;;;;;;;;;;;;;;;;1022946;29;879;-44
2022/01/10 03:19:57;;;;;;;;;;;;;;;;;;1022977;28;1307;-44
2022/01/10 03:20:28;;;;;;;;;;;;;;;;;;1026900;28;1004;-44
2022/01/10 03:20:58;;;;;;;;;;;;;;;;;;1030937;28;938;-45
2022/01/10 03:21:29;;;;;;;;;;;;;;;;;;1030969;28;858;-44
2022/01/10 03:21:59;;;;;;;;;;;;;;;;;;1031286;28;799;-45
2022/01/10 03:22:31;;;;;;;;;;;;;;;;;;1026969;28;895;-46
2022/01/10 03:23:02;;;;;;;;;;;;;;;;;;1026971;28;926;-44
2022/01/10 03:23:33;;;;;;;;;;;;;;;;;;1026902;28;858;-44
2022/01/10 03:24:03;;;;;;;;;;;;;;;;;;1027296;28;1205;-44
2022/01/10 03:24:35;;;;;;;;;;;;;;;;;;1030930;28;1178;-44
2022/01/10 03:25:06;;;;;;;;;;;;;;;;;;1033511;28;1243;-44
2022/01/10 03:25:39;;;;;;;;;;;;;;;;;;1033975;28;1210;-44
2022/01/10 03:26:12;;;;;;;;;;;;;;;;;;1027288;28;1261;-45
2022/01/10 03:26:43;;;;;;;;;;;;;;;;;;1026871;28;2170;-44
2022/01/10 03:27:13;;;;;;;;;;;;;;;;;;1026894;28;1382;-44
2022/01/10 03:27:44;;;;;;;;;;;;;;;;;;1027148;28;1914;-44
2022/01/10 03:28:15;;;;;;;;;;;;;;;;;;1031075;28;1201;-42
2022/01/10 03:28:47;;;;;;;;;;;;;;;;;;1031087;28;1303;-42
2022/01/10 03:29:19;;;;;;;;;;;;;;;;;;1031096;28;1161;-42
2022/01/10 03:29:49;;;;;;;;;;;;;;;;;;1030891;28;866;-42
2022/01/10 03:30:19;;;;;;;;;;;;;;;;;;1030935;28;918;-43
2022/01/10 03:30:50;;;;;;;;;;;;;;;;;;1030974;28;1313;-43
2022/01/10 03:31:24;;;;;;;;;;;;;;;;;;1034970;28;1290;-42
2022/01/10 03:31:54;;;;;;;;;;;;;;;;;;1030901;28;1300;-43
2022/01/10 03:32:26;;;;;;;;;;;;;;;;;;1030716;28;1164;-43
2022/01/10 03:33:03;;;;;;;;;;;;;;;;;;1023762;29;1772;-43
2022/01/10 03:33:38;;;;;;;;;;;;;;;;;;1029420;28;1181;-42
2022/01/10 03:34:12;;;;;;;;;;;;;;;;;;1033842;28;858;-43
2022/01/10 03:34:43;;;;;;;;;;;;;;;;;;1027731;28;1103;-43
2022/01/10 03:35:14;;;;;;;;;;;;;;;;;;1027601;28;1394;-43
2022/01/10 03:35:44;;;;;;;;;;;;;;;;;;1027820;28;981;-43
2022/01/10 03:36:18;;;;;;;;;;;;;;;;;;1028338;28;1582;-43
2022/01/10 03:36:49;;;;;;;;;;;;;;;;;;1024177;28;1670;-43
2022/01/10 03:37:20;;;;;;;;;;;;;;;;;;1023817;29;1150;-43
2022/01/10 03:37:51;;;;;;;;;;;;;;;;;;1019614;29;1751;-43
2022/01/10 03:38:22;;;;;;;;;;;;;;;;;;1023915;28;1170;-43
2022/01/10 03:38:52;;;;;;;;;;;;;;;;;;1027803;28;1304;-43
2022/01/10 03:39:22;;;;;;;;;;;;;;;;;;1031687;28;811;-43
2022/01/10 03:39:53;;;;;;;;;;;;;;;;;;1031809;28;882;-43
2022/01/10 03:40:23;;;;;;;;;;;;;;;;;;1031582;28;866;-43
2022/01/10 03:40:56;;;;;;;;;;;;;;;;;;1035596;28;1292;-43
2022/01/10 03:41:28;;;;;;;;;;;;;;;;;;1031766;28;1433;-43
2022/01/10 03:41:59;;;;;;;;;;;;;;;;;;1031601;28;1547;-43
2022/01/10 03:42:29;;;;;;;;;;;;;;;;;;1027612;28;1213;-44
2022/01/10 03:43:00;;;;;;;;;;;;;;;;;;1023792;28;1330;-43
2022/01/10 03:43:32;;;;;;;;;;;;;;;;;;1027554;28;1229;-43
2022/01/10 03:44:04;;;;;;;;;;;;;;;;;;1027587;28;1201;-43
2022/01/10 03:44:34;;;;;;;;;;;;;;;;;;1023577;29;1398;-43
2022/01/10 03:45:06;;;;;;;;;;;;;;;;;;1023919;28;1318;-43
2022/01/10 03:45:37;;;;;;;;;;;;;;;;;;1024061;28;946;-43
2022/01/10 03:46:07;;;;;;;;;;;;;;;;;;1027864;28;1158;-44
2022/01/10 03:46:38;;;;;;;;;;;;;;;;;;1027604;28;1497;-44
2022/01/10 03:47:10;;;;;;;;;;;;;;;;;;1027589;28;823;-43
2022/01/10 03:47:41;;;;;;;;;;;;;;;;;;1028058;28;1923;-43
2022/01/10 03:48:11;;;;;;;;;;;;;;;;;;1031672;28;1185;-43
2022/01/10 03:48:41;;;;;;;;;;;;;;;;;;1031471;28;1239;-44
2022/01/10 03:49:12;;;;;;;;;;;;;;;;;;1027601;28;1570;-43
2022/01/10 03:49:43;;;;;;;;;;;;;;;;;;1027681;28;982;-43
2022/01/10 03:50:13;;;;;;;;;;;;;;;;;;1031683;28;788;-43
2022/01/10 03:50:44;;;;;;;;;;;;;;;;;;1031837;28;752;-44
2022/01/10 03:51:16;;;;;;;;;;;;;;;;;;1031556;28;1389;-44
2022/01/10 03:51:46;;;;;;;;;;;;;;;;;;1031760;28;938;-43
2022/01/10 03:52:17;;;;;;;;;;;;;;;;;;1027534;28;1153;-43
2022/01/10 03:52:47;;;;;;;;;;;;;;;;;;1027544;28;863;-43
2022/01/10 03:53:17;;;;;;;;;;;;;;;;;;1027669;28;1339;-43
2022/01/10 03:53:48;;;;;;;;;;;;;;;;;;1027666;28;1338;-44